sensor_id;sensor_type;location;lat;lon;timestamp;temperature;humidity
69009;SHT31;56065;52.472;13.380;2023-02-04T00:00:09;5.92;81.56
69009;SHT31;56065;52.472;13.380;2023-02-04T00:02:35;5.80;82.60
69009;SHT31;56065;52.472;13.380;2023-02-04T00:05:02;5.88;81.87
69009;SHT31;56065;52.472;13.380;2023-02-04T00:07:27;5.83;82.40
69009;SHT31;56065;52.472;13.380;2023-02-04T00:09:53;5.78;82.69
69009;SHT31;56065;52.472;13.380;2023-02-04T00:12:18;5.80;82.80
69009;SHT31;56065;52.472;13.380;2023-02-04T00:14:44;5.82;82.89
69009;SHT31;56065;52.472;13.380;2023-02-04T00:17:09;5.66;82.81
69009;SHT31;56065;52.472;13.380;2023-02-04T00:19:37;5.78;83.11
69009;SHT31;56065;52.472;13.380;2023-02-04T00:22:03;5.70;82.96
69009;SHT31;56065;52.472;13.380;2023-02-04T00:24:28;5.68;82.84
69009;SHT31;56065;52.472;13.380;2023-02-04T00:26:55;5.56;82.83
69009;SHT31;56065;52.472;13.380;2023-02-04T00:29:20;5.49;83.20
69009;SHT31;56065;52.472;13.380;2023-02-04T00:31:46;5.51;83.29
69009;SHT31;56065;52.472;13.380;2023-02-04T00:34:11;5.42;83.53
69009;SHT31;56065;52.472;13.380;2023-02-04T00:36:36;5.28;83.50
69009;SHT31;56065;52.472;13.380;2023-02-04T00:39:02;5.37;82.86
69009;SHT31;56065;52.472;13.380;2023-02-04T00:41:27;5.30;83.06
69009;SHT31;56065;52.472;13.380;2023-02-04T00:43:52;5.31;83.91
69009;SHT31;56065;52.472;13.380;2023-02-04T00:46:18;5.17;84.42
69009;SHT31;56065;52.472;13.380;2023-02-04T00:48:43;5.18;83.83
69009;SHT31;56065;52.472;13.380;2023-02-04T00:51:08;5.34;84.31
69009;SHT31;56065;52.472;13.380;2023-02-04T00:53:33;5.34;83.12
69009;SHT31;56065;52.472;13.380;2023-02-04T00:55:59;5.17;83.68
69009;SHT31;56065;52.472;13.380;2023-02-04T00:58:24;5.03;83.80
69009;SHT31;56065;52.472;13.380;2023-02-04T01:00:49;4.89;83.86
69009;SHT31;56065;52.472;13.380;2023-02-04T01:03:15;4.81;83.36
69009;SHT31;56065;52.472;13.380;2023-02-04T01:05:40;4.38;84.15
69009;SHT31;56065;52.472;13.380;2023-02-04T01:08:05;4.41;83.81
69009;SHT31;56065;52.472;13.380;2023-02-04T01:10:31;4.31;84.48
69009;SHT31;56065;52.472;13.380;2023-02-04T01:12:56;4.27;84.08
69009;SHT31;56065;52.472;13.380;2023-02-04T01:15:22;4.14;84.49
69009;SHT31;56065;52.472;13.380;2023-02-04T01:17:47;4.11;84.58
69009;SHT31;56065;52.472;13.380;2023-02-04T01:20:13;4.12;84.64
69009;SHT31;56065;52.472;13.380;2023-02-04T01:22:38;4.02;84.57
69009;SHT31;56065;52.472;13.380;2023-02-04T01:25:04;3.98;84.26
69009;SHT31;56065;52.472;13.380;2023-02-04T01:27:30;3.94;84.00
69009;SHT31;56065;52.472;13.380;2023-02-04T01:29:55;3.84;84.61
69009;SHT31;56065;52.472;13.380;2023-02-04T01:32:20;3.86;84.24
69009;SHT31;56065;52.472;13.380;2023-02-04T01:34:46;3.84;84.60
69009;SHT31;56065;52.472;13.380;2023-02-04T01:37:11;3.74;84.46
69009;SHT31;56065;52.472;13.380;2023-02-04T01:39:36;3.70;84.59
69009;SHT31;56065;52.472;13.380;2023-02-04T01:42:02;3.74;85.26
69009;SHT31;56065;52.472;13.380;2023-02-04T01:44:28;3.71;84.83
69009;SHT31;56065;52.472;13.380;2023-02-04T01:46:54;3.56;84.68
69009;SHT31;56065;52.472;13.380;2023-02-04T01:49:19;3.67;84.80
69009;SHT31;56065;52.472;13.380;2023-02-04T01:51:45;3.62;85.21
69009;SHT31;56065;52.472;13.380;2023-02-04T01:54:11;3.62;84.94
69009;SHT31;56065;52.472;13.380;2023-02-04T01:56:39;3.67;84.42
69009;SHT31;56065;52.472;13.380;2023-02-04T01:59:14;3.63;84.35
69009;SHT31;56065;52.472;13.380;2023-02-04T02:01:46;3.56;84.67
69009;SHT31;56065;52.472;13.380;2023-02-04T02:04:15;3.46;85.15
69009;SHT31;56065;52.472;13.380;2023-02-04T02:06:56;3.43;85.05
69009;SHT31;56065;52.472;13.380;2023-02-04T02:09:23;3.43;84.79
69009;SHT31;56065;52.472;13.380;2023-02-04T02:11:49;3.40;84.83
69009;SHT31;56065;52.472;13.380;2023-02-04T02:14:15;3.46;84.67
69009;SHT31;56065;52.472;13.380;2023-02-04T02:16:40;3.55;84.41
69009;SHT31;56065;52.472;13.380;2023-02-04T02:19:09;3.64;84.20
69009;SHT31;56065;52.472;13.380;2023-02-04T02:22:04;3.63;84.14
69009;SHT31;56065;52.472;13.380;2023-02-04T02:24:32;3.76;83.89
69009;SHT31;56065;52.472;13.380;2023-02-04T02:27:04;3.83;83.58
69009;SHT31;56065;52.472;13.380;2023-02-04T02:29:31;3.84;83.48
69009;SHT31;56065;52.472;13.380;2023-02-04T02:31:57;3.90;83.22
69009;SHT31;56065;52.472;13.380;2023-02-04T02:34:24;3.95;82.96
69009;SHT31;56065;52.472;13.380;2023-02-04T02:36:50;3.97;82.57
69009;SHT31;56065;52.472;13.380;2023-02-04T02:39:15;3.99;82.54
69009;SHT31;56065;52.472;13.380;2023-02-04T02:41:42;4.01;82.60
69009;SHT31;56065;52.472;13.380;2023-02-04T02:44:08;3.99;82.64
69009;SHT31;56065;52.472;13.380;2023-02-04T02:46:35;3.94;82.55
69009;SHT31;56065;52.472;13.380;2023-02-04T02:49:00;3.88;82.57
69009;SHT31;56065;52.472;13.380;2023-02-04T02:51:26;3.77;82.94
69009;SHT31;56065;52.472;13.380;2023-02-04T02:53:52;3.77;82.85
69009;SHT31;56065;52.472;13.380;2023-02-04T02:56:18;3.67;83.02
69009;SHT31;56065;52.472;13.380;2023-02-04T02:58:43;3.55;83.81
69009;SHT31;56065;52.472;13.380;2023-02-04T03:01:09;3.49;83.71
69009;SHT31;56065;52.472;13.380;2023-02-04T03:03:39;3.49;83.65
69009;SHT31;56065;52.472;13.380;2023-02-04T03:06:12;3.46;83.27
69009;SHT31;56065;52.472;13.380;2023-02-04T03:08:39;3.42;83.34
69009;SHT31;56065;52.472;13.380;2023-02-04T03:11:05;3.33;83.67
69009;SHT31;56065;52.472;13.380;2023-02-04T03:13:31;3.26;83.72
69009;SHT31;56065;52.472;13.380;2023-02-04T03:15:58;3.18;83.97
69009;SHT31;56065;52.472;13.380;2023-02-04T03:18:24;3.12;84.06
69009;SHT31;56065;52.472;13.380;2023-02-04T03:20:50;3.08;84.46
69009;SHT31;56065;52.472;13.380;2023-02-04T03:23:15;3.02;84.76
69009;SHT31;56065;52.472;13.380;2023-02-04T03:25:41;3.04;84.30
69009;SHT31;56065;52.472;13.380;2023-02-04T03:28:08;2.96;84.52
69009;SHT31;56065;52.472;13.380;2023-02-04T03:30:33;2.96;84.29
69009;SHT31;56065;52.472;13.380;2023-02-04T03:32:58;2.88;84.82
69009;SHT31;56065;52.472;13.380;2023-02-04T03:35:24;2.88;84.59
69009;SHT31;56065;52.472;13.380;2023-02-04T03:37:49;2.85;84.81
69009;SHT31;56065;52.472;13.380;2023-02-04T03:40:15;2.84;84.77
69009;SHT31;56065;52.472;13.380;2023-02-04T03:42:40;2.81;84.95
69009;SHT31;56065;52.472;13.380;2023-02-04T03:45:06;2.80;84.84
69009;SHT31;56065;52.472;13.380;2023-02-04T03:47:31;2.80;85.16
69009;SHT31;56065;52.472;13.380;2023-02-04T03:49:57;2.75;85.08
69009;SHT31;56065;52.472;13.380;2023-02-04T03:52:22;2.75;85.13
69009;SHT31;56065;52.472;13.380;2023-02-04T03:54:47;2.71;85.31
69009;SHT31;56065;52.472;13.380;2023-02-04T03:57:13;2.71;85.16
69009;SHT31;56065;52.472;13.380;2023-02-04T03:59:40;2.73;85.32
69009;SHT31;56065;52.472;13.380;2023-02-04T04:02:05;2.71;85.18
69009;SHT31;56065;52.472;13.380;2023-02-04T04:04:31;2.62;85.61
69009;SHT31;56065;52.472;13.380;2023-02-04T04:06:56;2.68;85.74
69009;SHT31;56065;52.472;13.380;2023-02-04T04:09:22;2.71;85.54
69009;SHT31;56065;52.472;13.380;2023-02-04T04:11:47;2.73;85.38
69009;SHT31;56065;52.472;13.380;2023-02-04T04:14:12;2.77;85.45
69009;SHT31;56065;52.472;13.380;2023-02-04T04:16:38;2.75;85.82
69009;SHT31;56065;52.472;13.380;2023-02-04T04:19:03;2.78;86.10
69009;SHT31;56065;52.472;13.380;2023-02-04T04:21:29;2.78;85.81
69009;SHT31;56065;52.472;13.380;2023-02-04T04:23:54;2.91;85.98
69009;SHT31;56065;52.472;13.380;2023-02-04T04:26:19;3.05;85.89
69009;SHT31;56065;52.472;13.380;2023-02-04T04:28:45;3.13;85.70
69009;SHT31;56065;52.472;13.380;2023-02-04T04:31:10;3.25;85.12
69009;SHT31;56065;52.472;13.380;2023-02-04T04:33:36;3.32;85.32
69009;SHT31;56065;52.472;13.380;2023-02-04T04:36:01;3.40;84.97
69009;SHT31;56065;52.472;13.380;2023-02-04T04:38:26;3.49;84.64
69009;SHT31;56065;52.472;13.380;2023-02-04T04:40:52;3.50;84.58
69009;SHT31;56065;52.472;13.380;2023-02-04T04:43:17;3.57;84.61
69009;SHT31;56065;52.472;13.380;2023-02-04T04:45:43;3.53;84.44
69009;SHT31;56065;52.472;13.380;2023-02-04T04:48:08;3.56;84.38
69009;SHT31;56065;52.472;13.380;2023-02-04T04:50:33;3.55;84.11
69009;SHT31;56065;52.472;13.380;2023-02-04T04:52:59;3.43;84.32
69009;SHT31;56065;52.472;13.380;2023-02-04T04:55:24;3.39;84.16
69009;SHT31;56065;52.472;13.380;2023-02-04T04:57:50;3.30;84.09
69009;SHT31;56065;52.472;13.380;2023-02-04T05:00:17;3.25;84.15
69009;SHT31;56065;52.472;13.380;2023-02-04T05:02:43;3.18;84.42
69009;SHT31;56065;52.472;13.380;2023-02-04T05:05:09;3.09;84.73
69009;SHT31;56065;52.472;13.380;2023-02-04T05:07:35;3.09;84.78
69009;SHT31;56065;52.472;13.380;2023-02-04T05:10:01;2.99;85.07
69009;SHT31;56065;52.472;13.380;2023-02-04T05:12:26;2.96;85.03
69009;SHT31;56065;52.472;13.380;2023-02-04T05:14:52;2.88;84.97
69009;SHT31;56065;52.472;13.380;2023-02-04T05:17:17;2.83;85.24
69009;SHT31;56065;52.472;13.380;2023-02-04T05:19:43;2.73;85.48
69009;SHT31;56065;52.472;13.380;2023-02-04T05:22:08;2.64;85.92
69009;SHT31;56065;52.472;13.380;2023-02-04T05:24:33;2.61;86.08
69009;SHT31;56065;52.472;13.380;2023-02-04T05:26:59;2.57;86.15
69009;SHT31;56065;52.472;13.380;2023-02-04T05:29:24;2.53;86.03
69009;SHT31;56065;52.472;13.380;2023-02-04T05:31:49;2.46;87.14
69009;SHT31;56065;52.472;13.380;2023-02-04T05:34:15;2.43;86.89
69009;SHT31;56065;52.472;13.380;2023-02-04T05:36:40;2.33;87.18
69009;SHT31;56065;52.472;13.380;2023-02-04T05:39:05;2.41;86.82
69009;SHT31;56065;52.472;13.380;2023-02-04T05:41:31;2.40;86.72
69009;SHT31;56065;52.472;13.380;2023-02-04T05:43:56;2.40;86.83
69009;SHT31;56065;52.472;13.380;2023-02-04T05:46:21;2.40;86.64
69009;SHT31;56065;52.472;13.380;2023-02-04T05:48:47;2.37;86.61
69009;SHT31;56065;52.472;13.380;2023-02-04T05:51:12;2.33;87.03
69009;SHT31;56065;52.472;13.380;2023-02-04T05:53:37;2.32;86.81
69009;SHT31;56065;52.472;13.380;2023-02-04T05:56:03;2.30;86.89
69009;SHT31;56065;52.472;13.380;2023-02-04T05:58:28;2.29;86.75
69009;SHT31;56065;52.472;13.380;2023-02-04T06:00:58;2.24;86.82
69009;SHT31;56065;52.472;13.380;2023-02-04T06:03:25;2.17;87.01
69009;SHT31;56065;52.472;13.380;2023-02-04T06:05:50;2.17;87.29
69009;SHT31;56065;52.472;13.380;2023-02-04T06:08:15;2.15;87.60
69009;SHT31;56065;52.472;13.380;2023-02-04T06:10:41;2.12;87.79
69009;SHT31;56065;52.472;13.380;2023-02-04T06:13:06;2.15;87.95
69009;SHT31;56065;52.472;13.380;2023-02-04T06:15:32;2.12;87.99
69009;SHT31;56065;52.472;13.380;2023-02-04T06:17:57;2.15;87.95
69009;SHT31;56065;52.472;13.380;2023-02-04T06:20:23;2.19;87.78
69009;SHT31;56065;52.472;13.380;2023-02-04T06:22:48;2.15;87.53
69009;SHT31;56065;52.472;13.380;2023-02-04T06:25:16;2.12;87.45
69009;SHT31;56065;52.472;13.380;2023-02-04T06:27:41;2.07;87.59
69009;SHT31;56065;52.472;13.380;2023-02-04T06:30:08;2.05;87.77
69009;SHT31;56065;52.472;13.380;2023-02-04T06:32:34;2.03;88.23
69009;SHT31;56065;52.472;13.380;2023-02-04T06:34:59;2.13;88.76
69009;SHT31;56065;52.472;13.380;2023-02-04T06:37:24;2.15;88.05
69009;SHT31;56065;52.472;13.380;2023-02-04T06:39:50;2.10;87.99
69009;SHT31;56065;52.472;13.380;2023-02-04T06:42:15;2.07;88.11
69009;SHT31;56065;52.472;13.380;2023-02-04T06:44:41;2.10;89.37
69009;SHT31;56065;52.472;13.380;2023-02-04T06:47:06;2.13;87.86
69009;SHT31;56065;52.472;13.380;2023-02-04T06:49:32;2.13;87.56
69009;SHT31;56065;52.472;13.380;2023-02-04T06:51:57;2.10;87.55
69009;SHT31;56065;52.472;13.380;2023-02-04T06:54:22;2.09;87.55
69009;SHT31;56065;52.472;13.380;2023-02-04T06:56:48;2.06;87.47
69009;SHT31;56065;52.472;13.380;2023-02-04T06:59:13;2.07;87.71
69009;SHT31;56065;52.472;13.380;2023-02-04T07:01:39;2.15;87.42
69009;SHT31;56065;52.472;13.380;2023-02-04T07:04:04;2.19;87.36
69009;SHT31;56065;52.472;13.380;2023-02-04T07:06:29;2.32;87.31
69009;SHT31;56065;52.472;13.380;2023-02-04T07:08:55;2.40;87.00
69009;SHT31;56065;52.472;13.380;2023-02-04T07:11:20;2.58;86.96
69009;SHT31;56065;52.472;13.380;2023-02-04T07:13:45;2.73;86.52
69009;SHT31;56065;52.472;13.380;2023-02-04T07:16:11;2.92;86.15
69009;SHT31;56065;52.472;13.380;2023-02-04T07:18:37;3.02;85.97
69009;SHT31;56065;52.472;13.380;2023-02-04T07:21:02;3.22;85.84
69009;SHT31;56065;52.472;13.380;2023-02-04T07:23:27;3.37;85.08
69009;SHT31;56065;52.472;13.380;2023-02-04T07:25:53;3.37;84.64
69009;SHT31;56065;52.472;13.380;2023-02-04T07:28:21;3.37;84.85
69009;SHT31;56065;52.472;13.380;2023-02-04T07:30:47;3.49;84.92
69009;SHT31;56065;52.472;13.380;2023-02-04T07:33:12;3.98;84.72
69009;SHT31;56065;52.472;13.380;2023-02-04T07:35:37;4.65;82.78
69009;SHT31;56065;52.472;13.380;2023-02-04T07:38:04;4.76;81.17
69009;SHT31;56065;52.472;13.380;2023-02-04T07:40:29;4.65;81.03
69009;SHT31;56065;52.472;13.380;2023-02-04T07:42:54;4.58;81.42
69009;SHT31;56065;52.472;13.380;2023-02-04T07:45:20;4.39;81.97
69009;SHT31;56065;52.472;13.380;2023-02-04T07:47:45;4.22;82.26
69009;SHT31;56065;52.472;13.380;2023-02-04T07:50:11;4.18;82.64
69009;SHT31;56065;52.472;13.380;2023-02-04T07:52:36;4.42;82.67
69009;SHT31;56065;52.472;13.380;2023-02-04T07:55:02;4.60;82.04
69009;SHT31;56065;52.472;13.380;2023-02-04T07:57:27;4.97;81.56
69009;SHT31;56065;52.472;13.380;2023-02-04T07:59:54;5.61;80.59
69009;SHT31;56065;52.472;13.380;2023-02-04T08:02:19;6.51;78.53
69009;SHT31;56065;52.472;13.380;2023-02-04T08:04:45;6.91;76.74
69009;SHT31;56065;52.472;13.380;2023-02-04T08:07:10;7.64;76.62
69009;SHT31;56065;52.472;13.380;2023-02-04T08:09:37;7.95;73.07
69009;SHT31;56065;52.472;13.380;2023-02-04T08:12:02;8.45;72.58
69009;SHT31;56065;52.472;13.380;2023-02-04T08:14:28;9.14;72.32
69009;SHT31;56065;52.472;13.380;2023-02-04T08:16:53;9.30;71.06
69009;SHT31;56065;52.472;13.380;2023-02-04T08:19:18;10.09;71.50
69009;SHT31;56065;52.472;13.380;2023-02-04T08:21:45;11.33;68.56
69009;SHT31;56065;52.472;13.380;2023-02-04T08:24:12;12.08;65.87
69009;SHT31;56065;52.472;13.380;2023-02-04T08:26:38;12.43;63.73
69009;SHT31;56065;52.472;13.380;2023-02-04T08:29:04;12.72;62.45
69009;SHT31;56065;52.472;13.380;2023-02-04T08:31:29;13.30;61.13
69009;SHT31;56065;52.472;13.380;2023-02-04T08:33:55;13.62;59.98
69009;SHT31;56065;52.472;13.380;2023-02-04T08:36:20;13.71;59.30
69009;SHT31;56065;52.472;13.380;2023-02-04T08:38:45;13.96;59.22
69009;SHT31;56065;52.472;13.380;2023-02-04T08:41:11;13.51;58.14
69009;SHT31;56065;52.472;13.380;2023-02-04T08:43:36;13.57;58.49
69009;SHT31;56065;52.472;13.380;2023-02-04T08:46:02;14.05;58.02
69009;SHT31;56065;52.472;13.380;2023-02-04T08:48:27;14.36;56.55
69009;SHT31;56065;52.472;13.380;2023-02-04T08:50:53;14.95;55.69
69009;SHT31;56065;52.472;13.380;2023-02-04T08:53:18;15.93;55.14
69009;SHT31;56065;52.472;13.380;2023-02-04T08:55:43;15.86;52.78
69009;SHT31;56065;52.472;13.380;2023-02-04T08:58:09;15.43;53.03
69009;SHT31;56065;52.472;13.380;2023-02-04T09:00:34;15.08;53.90
69009;SHT31;56065;52.472;13.380;2023-02-04T09:02:59;15.05;53.76
69009;SHT31;56065;52.472;13.380;2023-02-04T09:05:25;15.01;54.94
69009;SHT31;56065;52.472;13.380;2023-02-04T09:07:50;15.76;52.66
69009;SHT31;56065;52.472;13.380;2023-02-04T09:10:15;16.72;51.84
69009;SHT31;56065;52.472;13.380;2023-02-04T09:12:41;15.77;51.48
69009;SHT31;56065;52.472;13.380;2023-02-04T09:15:08;15.11;53.11
69009;SHT31;56065;52.472;13.380;2023-02-04T09:17:33;14.51;53.77
69009;SHT31;56065;52.472;13.380;2023-02-04T09:19:59;14.47;55.20
69009;SHT31;56065;52.472;13.380;2023-02-04T09:22:25;14.20;55.02
69009;SHT31;56065;52.472;13.380;2023-02-04T09:24:50;13.68;55.31
69009;SHT31;56065;52.472;13.380;2023-02-04T09:27:16;13.34;56.21
69009;SHT31;56065;52.472;13.380;2023-02-04T09:29:41;13.14;56.39
69009;SHT31;56065;52.472;13.380;2023-02-04T09:32:06;13.65;56.65
69009;SHT31;56065;52.472;13.380;2023-02-04T09:34:32;14.47;55.69
69009;SHT31;56065;52.472;13.380;2023-02-04T09:36:57;15.42;52.70
69009;SHT31;56065;52.472;13.380;2023-02-04T09:39:22;16.59;50.64
69009;SHT31;56065;52.472;13.380;2023-02-04T09:41:48;17.82;49.71
69009;SHT31;56065;52.472;13.380;2023-02-04T09:44:17;18.77;48.04
69009;SHT31;56065;52.472;13.380;2023-02-04T09:46:48;19.48;46.32
69009;SHT31;56065;52.472;13.380;2023-02-04T09:49:14;19.51;45.59
69009;SHT31;56065;52.472;13.380;2023-02-04T09:51:40;19.67;44.95
69009;SHT31;56065;52.472;13.380;2023-02-04T09:54:10;19.63;43.85
69009;SHT31;56065;52.472;13.380;2023-02-04T09:56:36;19.35;43.57
69009;SHT31;56065;52.472;13.380;2023-02-04T09:59:05;20.74;44.45
69009;SHT31;56065;52.472;13.380;2023-02-04T10:01:30;20.52;42.48
69009;SHT31;56065;52.472;13.380;2023-02-04T10:03:59;20.61;43.72
69009;SHT31;56065;52.472;13.380;2023-02-04T10:06:25;19.85;42.71
69009;SHT31;56065;52.472;13.380;2023-02-04T10:08:51;18.71;44.43
69009;SHT31;56065;52.472;13.380;2023-02-04T10:11:19;18.24;45.69
69009;SHT31;56065;52.472;13.380;2023-02-04T10:13:50;17.30;46.40
69009;SHT31;56065;52.472;13.380;2023-02-04T10:16:27;16.22;47.27
69009;SHT31;56065;52.472;13.380;2023-02-04T10:18:59;16.40;48.12
69009;SHT31;56065;52.472;13.380;2023-02-04T10:21:28;16.15;47.36
69009;SHT31;56065;52.472;13.380;2023-02-04T10:23:55;16.18;48.29
69009;SHT31;56065;52.472;13.380;2023-02-04T10:26:23;16.34;47.60
69009;SHT31;56065;52.472;13.380;2023-02-04T10:28:49;17.03;47.14
69009;SHT31;56065;52.472;13.380;2023-02-04T10:31:38;17.63;45.38
69009;SHT31;56065;52.472;13.380;2023-02-04T10:34:20;18.13;44.64
69009;SHT31;56065;52.472;13.380;2023-02-04T10:36:51;17.71;44.94
69009;SHT31;56065;52.472;13.380;2023-02-04T10:39:20;17.19;45.76
69009;SHT31;56065;52.472;13.380;2023-02-04T10:41:57;16.41;46.67
69009;SHT31;56065;52.472;13.380;2023-02-04T10:44:33;15.34;47.76
69009;SHT31;56065;52.472;13.380;2023-02-04T10:47:06;14.24;49.50
69009;SHT31;56065;52.472;13.380;2023-02-04T10:49:38;13.51;50.86
69009;SHT31;56065;52.472;13.380;2023-02-04T10:52:14;12.79;52.54
69009;SHT31;56065;52.472;13.380;2023-02-04T10:54:40;12.59;52.48
69009;SHT31;56065;52.472;13.380;2023-02-04T10:57:26;11.77;53.23
69009;SHT31;56065;52.472;13.380;2023-02-04T10:59:55;11.32;53.68
69009;SHT31;56065;52.472;13.380;2023-02-04T11:02:57;12.97;53.57
69009;SHT31;56065;52.472;13.380;2023-02-04T11:05:28;14.63;50.29
69009;SHT31;56065;52.472;13.380;2023-02-04T11:07:54;15.57;47.23
69009;SHT31;56065;52.472;13.380;2023-02-04T11:10:23;16.41;46.64
69009;SHT31;56065;52.472;13.380;2023-02-04T11:20:50;14.32;46.77
69009;SHT31;56065;52.472;13.380;2023-02-04T11:28:43;12.60;51.28
69009;SHT31;56065;52.472;13.380;2023-02-04T11:33:47;11.70;52.06
69009;SHT31;56065;52.472;13.380;2023-02-04T11:36:13;11.16;53.79
69009;SHT31;56065;52.472;13.380;2023-02-04T11:38:43;10.64;53.84
69009;SHT31;56065;52.472;13.380;2023-02-04T11:41:15;10.18;54.83
69009;SHT31;56065;52.472;13.380;2023-02-04T11:43:42;9.81;55.67
69009;SHT31;56065;52.472;13.380;2023-02-04T11:46:15;9.94;56.61
69009;SHT31;56065;52.472;13.380;2023-02-04T11:48:42;10.24;55.83
69009;SHT31;56065;52.472;13.380;2023-02-04T11:51:13;10.89;55.94
69009;SHT31;56065;52.472;13.380;2023-02-04T11:53:39;12.36;54.46
69009;SHT31;56065;52.472;13.380;2023-02-04T11:56:05;12.76;52.67
69009;SHT31;56065;52.472;13.380;2023-02-04T11:58:31;12.56;52.83
69009;SHT31;56065;52.472;13.380;2023-02-04T12:00:57;11.71;51.35
69009;SHT31;56065;52.472;13.380;2023-02-04T12:03:25;11.39;51.25
69009;SHT31;56065;52.472;13.380;2023-02-04T12:05:52;11.02;52.22
69009;SHT31;56065;52.472;13.380;2023-02-04T12:11:11;13.78;49.08
69009;SHT31;56065;52.472;13.380;2023-02-04T12:13:51;15.21;48.02
69009;SHT31;56065;52.472;13.380;2023-02-04T12:16:17;15.96;45.86
69009;SHT31;56065;52.472;13.380;2023-02-04T12:18:43;16.59;44.58
69009;SHT31;56065;52.472;13.380;2023-02-04T12:21:08;17.71;44.72
69009;SHT31;56065;52.472;13.380;2023-02-04T12:23:33;18.67;41.94
69009;SHT31;56065;52.472;13.380;2023-02-04T12:25:59;18.98;41.45
69009;SHT31;56065;52.472;13.380;2023-02-04T12:28:24;17.82;41.07
69009;SHT31;56065;52.472;13.380;2023-02-04T12:30:52;16.61;42.49
69009;SHT31;56065;52.472;13.380;2023-02-04T12:33:17;14.94;44.68
69009;SHT31;56065;52.472;13.380;2023-02-04T12:35:42;13.86;46.52
69009;SHT31;56065;52.472;13.380;2023-02-04T12:38:08;14.09;46.98
69009;SHT31;56065;52.472;13.380;2023-02-04T12:40:34;14.56;46.71
69009;SHT31;56065;52.472;13.380;2023-02-04T12:43:00;15.86;44.87
69009;SHT31;56065;52.472;13.380;2023-02-04T12:45:26;16.77;42.52
69009;SHT31;56065;52.472;13.380;2023-02-04T12:47:51;17.75;41.83
69009;SHT31;56065;52.472;13.380;2023-02-04T12:50:17;18.90;41.76
69009;SHT31;56065;52.472;13.380;2023-02-04T12:52:53;19.07;38.56
69009;SHT31;56065;52.472;13.380;2023-02-04T12:55:19;18.88;38.63
69009;SHT31;56065;52.472;13.380;2023-02-04T12:57:45;18.76;38.17
69009;SHT31;56065;52.472;13.380;2023-02-04T13:00:12;18.43;38.67
69009;SHT31;56065;52.472;13.380;2023-02-04T13:02:38;18.02;40.27
69009;SHT31;56065;52.472;13.380;2023-02-04T13:05:03;17.47;41.42
69009;SHT31;56065;52.472;13.380;2023-02-04T13:07:29;16.66;42.63
69009;SHT31;56065;52.472;13.380;2023-02-04T13:09:54;15.60;43.37
69009;SHT31;56065;52.472;13.380;2023-02-04T13:12:20;14.29;45.10
69009;SHT31;56065;52.472;13.380;2023-02-04T13:14:45;13.79;45.67
69009;SHT31;56065;52.472;13.380;2023-02-04T13:17:11;13.08;47.07
69009;SHT31;56065;52.472;13.380;2023-02-04T13:19:36;12.41;48.36
69009;SHT31;56065;52.472;13.380;2023-02-04T13:22:02;11.97;49.54
69009;SHT31;56065;52.472;13.380;2023-02-04T13:24:27;12.15;49.57
69009;SHT31;56065;52.472;13.380;2023-02-04T13:26:53;12.15;48.92
69009;SHT31;56065;52.472;13.380;2023-02-04T13:29:19;11.98;48.70
69009;SHT31;56065;52.472;13.380;2023-02-04T13:31:46;11.71;49.50
69009;SHT31;56065;52.472;13.380;2023-02-04T13:34:11;11.52;50.44
69009;SHT31;56065;52.472;13.380;2023-02-04T13:36:36;11.23;51.47
69009;SHT31;56065;52.472;13.380;2023-02-04T13:39:03;11.16;51.55
69009;SHT31;56065;52.472;13.380;2023-02-04T13:41:28;10.96;51.99
69009;SHT31;56065;52.472;13.380;2023-02-04T13:43:54;10.69;52.10
69009;SHT31;56065;52.472;13.380;2023-02-04T13:46:20;10.43;52.26
69009;SHT31;56065;52.472;13.380;2023-02-04T13:48:46;10.02;52.62
69009;SHT31;56065;52.472;13.380;2023-02-04T13:51:12;9.87;52.30
69009;SHT31;56065;52.472;13.380;2023-02-04T13:53:37;9.49;52.45
69009;SHT31;56065;52.472;13.380;2023-02-04T13:56:03;9.32;52.60
69009;SHT31;56065;52.472;13.380;2023-02-04T13:58:28;8.91;53.77
69009;SHT31;56065;52.472;13.380;2023-02-04T14:00:53;8.72;54.02
69009;SHT31;56065;52.472;13.380;2023-02-04T14:03:27;8.49;54.69
69009;SHT31;56065;52.472;13.380;2023-02-04T14:05:53;8.46;55.14
69009;SHT31;56065;52.472;13.380;2023-02-04T14:08:19;8.50;55.36
69009;SHT31;56065;52.472;13.380;2023-02-04T14:10:45;8.59;55.42
69009;SHT31;56065;52.472;13.380;2023-02-04T14:13:10;8.52;55.29
69009;SHT31;56065;52.472;13.380;2023-02-04T14:15:36;8.60;56.15
69009;SHT31;56065;52.472;13.380;2023-02-04T14:18:08;8.70;56.36
69009;SHT31;56065;52.472;13.380;2023-02-04T14:20:34;8.69;55.56
69009;SHT31;56065;52.472;13.380;2023-02-04T14:23:00;8.72;56.23
69009;SHT31;56065;52.472;13.380;2023-02-04T14:25:25;8.72;55.81
69009;SHT31;56065;52.472;13.380;2023-02-04T14:27:51;8.69;55.31
69009;SHT31;56065;52.472;13.380;2023-02-04T14:30:17;8.66;55.54
69009;SHT31;56065;52.472;13.380;2023-02-04T14:32:43;8.66;55.50
69009;SHT31;56065;52.472;13.380;2023-02-04T14:35:08;8.69;54.38
69009;SHT31;56065;52.472;13.380;2023-02-04T14:37:33;8.49;54.04
69009;SHT31;56065;52.472;13.380;2023-02-04T14:39:59;8.53;54.21
69009;SHT31;56065;52.472;13.380;2023-02-04T14:42:24;8.46;54.43
69009;SHT31;56065;52.472;13.380;2023-02-04T14:44:49;8.85;55.08
69009;SHT31;56065;52.472;13.380;2023-02-04T14:47:15;9.39;54.06
69009;SHT31;56065;52.472;13.380;2023-02-04T14:49:40;9.83;54.05
69009;SHT31;56065;52.472;13.380;2023-02-04T14:52:05;10.33;52.82
69009;SHT31;56065;52.472;13.380;2023-02-04T14:54:31;10.44;52.06
69009;SHT31;56065;52.472;13.380;2023-02-04T14:56:56;10.60;51.75
69009;SHT31;56065;52.472;13.380;2023-02-04T14:59:22;10.50;51.18
69009;SHT31;56065;52.472;13.380;2023-02-04T15:01:47;10.16;51.62
69009;SHT31;56065;52.472;13.380;2023-02-04T15:04:12;9.85;51.65
69009;SHT31;56065;52.472;13.380;2023-02-04T15:06:38;9.49;52.40
69009;SHT31;56065;52.472;13.380;2023-02-04T15:09:03;9.08;53.66
69009;SHT31;56065;52.472;13.380;2023-02-04T15:11:28;8.83;53.98
69009;SHT31;56065;52.472;13.380;2023-02-04T15:13:55;8.63;54.53
69009;SHT31;56065;52.472;13.380;2023-02-04T15:16:21;8.36;55.17
69009;SHT31;56065;52.472;13.380;2023-02-04T15:18:46;8.09;55.09
69009;SHT31;56065;52.472;13.380;2023-02-04T15:21:11;8.05;55.70
69009;SHT31;56065;52.472;13.380;2023-02-04T15:23:37;7.91;54.69
69009;SHT31;56065;52.472;13.380;2023-02-04T15:26:02;7.78;55.05
69009;SHT31;56065;52.472;13.380;2023-02-04T15:28:28;7.64;55.06
69009;SHT31;56065;52.472;13.380;2023-02-04T15:30:55;7.44;55.43
69009;SHT31;56065;52.472;13.380;2023-02-04T15:33:20;7.22;55.77
69009;SHT31;56065;52.472;13.380;2023-02-04T15:35:45;7.05;56.75
69009;SHT31;56065;52.472;13.380;2023-02-04T15:38:11;6.81;57.85